Leonard, North Dakota
Current Conditions -  °F | °C
As of 6:53 PM on Thursday 27 Nov 2014 (Local Time) from KFAR Reporting Station
Overcast Overcast  
Wind Chill: -6°   Ceiling: 7000
Heat Index:   Visibility: 10mi
Dew Point: -2°   Wind: 12mph
Humidity: 61%   Direction: 150°SSE
Pressure: 30.23"   Gusts: NA
Location:  46.65°N, 97.25°W
Report Text: KFAR 280053Z 15010KT 10SM FEW050 BKN070 OVC090 M13/M19 A3023 RMK AO2 SLP264 T11281189
Loading
Personal Weather Stations






























Interactive Weather Map New forecast layout! Learn more

10-Day Weather Forecast

Advertisements
Track Severe Weather on mobile